Uraga Maru — JD2163 — position and weather

sailwx.info

Track history (hours):
 
Tides and Currents Weather Stations Pressure Air Temp Water Temp Dewpoint Dewpoint Depression Visibility Wind Speed Wind Dir Waves Ship Positions

Uraga Maru

Last reported at 2016-May-26 19:33 UTC. Time now 2016-May-26 20:20 UTC.
Position N 35°17' E 139°41'.

Length 40 m; draft 2.8 m.

Type: Tug. MMSI: 431101119.

Date/timePositionNaut miles runAvg speedWind from/ knotsBaromVisibWave heightAir tempDewpointWater temp
2016-May-26 19:33N 35°17' E 139°41'0 0.0
2016-May-26 18:31N 35°17' E 139°41'0 0.1
2016-May-26 17:33N 35°17' E 139°41'0 0.0
2016-May-26 16:26N 35°17' E 139°41'0 0.0
2016-May-26 15:33N 35°17' E 139°41'0 0.0
2016-May-26 14:31N 35°17' E 139°41'0 0.0
2016-May-26 13:24N 35°17' E 139°41'0 0.0
2016-May-26 12:33N 35°17' E 139°41'0 0.0
2016-May-26 11:32N 35°17' E 139°41'0 0.0
2016-May-26 10:24N 35°17' E 139°41'0 0.0
2016-May-26 09:07N 35°17' E 139°41'0 0.0
2016-May-26 08:30N 35°17' E 139°41'0 0.0
2016-May-26 07:31N 35°17' E 139°41'0 0.1
2016-May-26 06:33N 35°17' E 139°41'0 0.0
2016-May-26 05:33N 35°17' E 139°41'0 0.0
2016-May-26 04:33N 35°17' E 139°41'0 0.0
2016-May-26 03:33N 35°17' E 139°41'0 0.0
2016-May-26 02:33N 35°17' E 139°41'9 9.1
2016-May-26 01:34N 35°26' E 139°44'8 7.6
2016-May-26 00:33N 35°18' E 139°45'7 6.8
2016-May-25 23:30N 35°11' E 139°47'8 8.2
2016-May-25 22:33N 35°17' E 139°41'0 0.1
2016-May-25 21:32N 35°17' E 139°41'0 0.0
2016-May-25 20:31N 35°17' E 139°41'0 0.0
2016-May-25 19:31N 35°17' E 139°41'0 0.0
2016-May-25 18:32N 35°17' E 139°41'0 0.0
2016-May-25 17:33N 35°17' E 139°41'0 0.0
2016-May-25 16:31N 35°17' E 139°41'0 0.0
2016-May-25 15:33N 35°17' E 139°41'0 0.0
2016-May-25 14:33N 35°17' E 139°41'0 0.0
2016-May-25 13:33N 35°17' E 139°41'0 0.0
2016-May-25 12:33N 35°17' E 139°41'0 0.0
2016-May-25 10:14N 35°17' E 139°41'0 0.0
2016-May-25 09:27N 35°17' E 139°41'0 0.0
2016-May-25 08:11N 35°17' E 139°41'0 0.2
2016-May-25 07:25N 35°17' E 139°41'1 1.1
2016-May-25 06:23N 35°18' E 139°42'0 0.6
2016-May-25 05:33N 35°18' E 139°42'4 3.7
2016-May-25 04:28N 35°16' E 139°46'910.3
2016-May-25 03:33N 35°25' E 139°46'6 5.7
2016-May-25 02:33N 35°20' E 139°49'4 4.0
2016-May-25 01:33N 35°20' E 139°45'4 4.0
2016-May-25 00:31N 35°17' E 139°41'0 0.0
2016-May-24 23:20N 35°17' E 139°41'0 0.0
2016-May-24 22:32N 35°17' E 139°41'0 0.0
2016-May-24 21:22N 35°17' E 139°41'0 0.0
2016-May-24 20:17N 35°17' E 139°41'0 0.0
2016-May-24 19:30N 35°17' E 139°41'0 0.0
2016-May-24 17:29N 35°17' E 139°41'0 0.0
2016-May-24 16:24N 35°17' E 139°41'0 0.0
2016-May-24 15:33N 35°17' E 139°41'0 0.0
2016-May-24 14:33N 35°17' E 139°41'0 0.0
2016-May-24 13:29N 35°17' E 139°41'0 0.0
2016-May-24 11:33N 35°17' E 139°41'0 0.0
2016-May-24 10:13N 35°17' E 139°41'0 0.0
2016-May-24 09:33N 35°17' E 139°41'0 0.0
2016-May-24 08:33N 35°17' E 139°41'0 0.0
2016-May-24 07:33N 35°17' E 139°41'0 0.0
2016-May-24 06:33N 35°17' E 139°41'0 0.0
2016-May-24 05:33N 35°17' E 139°41'0 0.0
2016-May-24 04:33N 35°17' E 139°41'0 0.0
2016-May-24 03:33N 35°17' E 139°41'0 0.0
2016-May-24 02:33N 35°17' E 139°41'0 0.0
2016-May-24 01:33N 35°17' E 139°41'0 0.0
2016-May-24 00:33N 35°17' E 139°41'0 0.0
2016-May-23 23:33N 35°17' E 139°41'1 0.7
2016-May-23 22:33N 35°17' E 139°41'6 6.3
2016-May-23 21:33N 35°13' E 139°47'3 3.2
2016-May-23 20:33N 35°13' E 139°43'3 2.6
2016-May-23 19:33N 35°12' E 139°46'1110.6
2016-May-23 18:33N 35°22' E 139°42'2 1.6
2016-May-23 17:33N 35°23' E 139°40'0 0.0
2016-May-23 16:33N 35°23' E 139°40'0 0.0
2016-May-23 15:33N 35°23' E 139°40'0 0.0
2016-May-23 14:33N 35°23' E 139°40'0 0.0
2016-May-23 13:33N 35°23' E 139°40'2 1.8
2016-May-23 12:33N 35°21' E 139°41'8 8.2
2016-May-23 11:33N 35°14' E 139°46'1111.0
2016-May-23 10:33N 35°25' E 139°43'1 1.3
2016-May-23 09:33N 35°24' E 139°44'3 2.6
2016-May-23 08:33N 35°22' E 139°41'8 7.9
2016-May-23 07:33N 35°16' E 139°47'1 1.1
2016-May-23 06:26N 35°15' E 139°46'5 4.4
2016-May-23 05:20N 35°17' E 139°41'0 0.0
2016-May-23 04:16N 35°17' E 139°41'0 0.1
2016-May-23 03:33N 35°17' E 139°41'0 0.0
2016-May-23 02:29N 35°17' E 139°41'0 0.1
2016-May-23 01:32N 35°17' E 139°41'0 0.1
2016-May-23 00:33N 35°17' E 139°41'0 0.0
2016-May-22 23:33N 35°17' E 139°41'0 0.0
2016-May-22 22:34N 35°17' E 139°41'0 0.0
2016-May-22 21:34N 35°17' E 139°41'0 0.0
2016-May-22 20:34N 35°17' E 139°41'0 0.0
2016-May-22 19:33N 35°17' E 139°41'0 0.0
2016-May-22 18:33N 35°17' E 139°41'0 0.0
2016-May-22 17:34N 35°17' E 139°41'0 0.0
2016-May-22 16:33N 35°17' E 139°41'0 0.0
2016-May-22 15:33N 35°17' E 139°41'0 0.0
2016-May-22 14:33N 35°17' E 139°41'0 0.0
2016-May-22 13:34N 35°17' E 139°41'0 0.0
2016-May-22 12:33N 35°17' E 139°41'0 0.0
2016-May-22 11:33N 35°17' E 139°41'0 0.0
2016-May-22 10:33N 35°17' E 139°41'0 0.0
2016-May-22 09:33N 35°17' E 139°41'0 0.0
2016-May-22 08:32N 35°17' E 139°41'0 0.0
2016-May-22 07:32N 35°17' E 139°41'0 0.0
2016-May-22 06:32N 35°17' E 139°41'0 0.0
2016-May-22 05:34N 35°17' E 139°41'0 0.0
2016-May-22 04:33N 35°17' E 139°41'0 0.0
2016-May-22 03:32N 35°17' E 139°41'0 0.0
2016-May-22 02:33N 35°17' E 139°41'0 0.0
2016-May-22 01:33N 35°17' E 139°41'7 6.8
2016-May-22 00:34N 35°22' E 139°46'4 3.5
2016-May-21 23:33N 35°20' E 139°49'1 1.2
2016-May-21 22:33N 35°22' E 139°49'2 2.1
2016-May-21 21:34N 35°24' E 139°48'8 8.2
2016-May-21 20:33N 35°15' E 139°47'3 3.2
2016-May-21 19:33N 35°13' E 139°44'1 1.0
2016-May-21 18:34N 35°13' E 139°43'0 0.0
2016-May-21 17:34N 35°13' E 139°43'3 2.9
2016-May-21 16:32N 35°14' E 139°46'1010.3
2016-May-21 15:33N 35°23' E 139°41'6 5.9
2016-May-21 14:33N 35°17' E 139°41'1 0.7
2016-May-21 13:33N 35°17' E 139°41'0 0.0
2016-May-21 12:25N 35°17' E 139°41'0 0.0
2016-May-21 11:27N 35°17' E 139°41'0 0.0
2016-May-21 10:33N 35°17' E 139°41'0 0.0
2016-May-21 07:33N 35°17' E 139°41'0 0.0
2016-May-21 06:32N 35°17' E 139°41'0 0.0
2016-May-21 05:25N 35°17' E 139°41'5 2.6
2016-May-21 03:33N 35°15' E 139°46'7 6.8
2016-May-21 02:33N 35°21' E 139°42'4 3.9
2016-May-21 01:33N 35°24' E 139°39'6 5.5
2016-May-21 00:33N 35°19' E 139°42'2 2.1
2016-May-20 23:33N 35°17' E 139°41'0 0.0
2016-May-20 22:33N 35°17' E 139°41'0 0.0
2016-May-20 21:32N 35°17' E 139°41'0 0.0
2016-May-20 20:32N 35°17' E 139°41'0 0.0
2016-May-20 19:33N 35°17' E 139°41'0 0.0
2016-May-20 18:33N 35°17' E 139°41'0 0.0
2016-May-20 17:33N 35°17' E 139°41'0 0.0
2016-May-20 16:33N 35°17' E 139°41'0 0.0
2016-May-20 15:33N 35°17' E 139°41'0 0.0
2016-May-20 14:33N 35°17' E 139°41'0 0.0
2016-May-20 13:33N 35°17' E 139°41'0 0.0
2016-May-20 12:33N 35°17' E 139°41'0 0.0
2016-May-20 11:33N 35°17' E 139°41'0 0.0
2016-May-20 10:33N 35°17' E 139°41'0 0.0
2016-May-20 09:33N 35°17' E 139°41'0 0.0
2016-May-20 08:33N 35°17' E 139°41'0 0.0
2016-May-20 07:33N 35°17' E 139°41'0 0.0
2016-May-20 06:33N 35°17' E 139°41'0 0.0
2016-May-20 05:33N 35°17' E 139°41'0 0.0
2016-May-20 04:33N 35°17' E 139°41'0 0.0
2016-May-20 03:33N 35°17' E 139°41'3 3.4
2016-May-20 02:33N 35°16' E 139°45'3 2.8
2016-May-20 01:33N 35°19' E 139°43'1110.8
2016-May-20 00:34N 35°28' E 139°49'7 6.7
2016-May-19 23:33N 35°29' E 139°58'3 3.0
2016-May-19 22:34N 35°28' E 139°54'7 7.3
2016-May-19 21:34N 35°24' E 139°46'1111.4
2016-May-19 20:33N 35°13' E 139°47'4 3.4
2016-May-19 19:32N 35°16' E 139°45'4 3.9
2016-May-19 18:34N 35°17' E 139°41'0 0.0
2016-May-19 17:33N 35°17' E 139°41'0 0.0
2016-May-19 16:34N 35°17' E 139°41'0 0.0
2016-May-19 15:34N 35°17' E 139°41'0 0.0
2016-May-19 14:33N 35°17' E 139°41'0 0.0
2016-May-19 13:33N 35°17' E 139°41'0 0.0
2016-May-19 12:34N 35°17' E 139°41'0 0.0
2016-May-19 11:34N 35°17' E 139°41'0 0.0
2016-May-19 10:34N 35°17' E 139°41'0 0.0
2016-May-19 09:33N 35°17' E 139°41'0 0.0
2016-May-19 08:33N 35°17' E 139°41'0 0.0
2016-May-19 07:33N 35°17' E 139°41'0 0.2
2016-May-19 06:34N 35°17' E 139°41'0 0.2
2016-May-19 05:32N 35°17' E 139°41'1 1.5
2016-May-19 04:34N 35°18' E 139°42'2 2.4
2016-May-19 03:33N 35°17' E 139°45'8 7.8
2016-May-19 02:33N 35°24' E 139°48'3 3.3
2016-May-19 01:34N 35°21' E 139°49'7 6.8
2016-May-19 00:33N 35°18' E 139°42'1 1.1
2016-May-18 23:33N 35°17' E 139°41'0 0.0
2016-May-18 21:33N 35°17' E 139°41'0 0.0
2016-May-18 20:18N 35°17' E 139°41'0 0.0
2016-May-18 19:33N 35°17' E 139°41'0 0.0
2016-May-18 18:33N 35°17' E 139°41'0 0.0
2016-May-18 17:26N 35°17' E 139°41'0 0.0
2016-May-18 15:25N 35°17' E 139°41'0 0.0
2016-May-18 14:33N 35°17' E 139°41'0 0.0
2016-May-18 13:23N 35°17' E 139°41'0 0.0
2016-May-18 12:29N 35°17' E 139°41'0 0.0
2016-May-18 11:30N 35°17' E 139°41'0 0.0
2016-May-18 10:33N 35°17' E 139°41'0 0.0
2016-May-18 09:33N 35°17' E 139°41'0 0.0
2016-May-18 08:34N 35°17' E 139°41'0 0.0
2016-May-18 06:27N 35°17' E 139°41'0 0.0
2016-May-17 23:32N 35°17' E 139°41'5 4.6
2016-May-17 22:33N 35°13' E 139°43'8 7.9
2016-May-17 21:33N 35°21' E 139°42'2 2.3
2016-May-17 20:34N 35°23' E 139°44'6 0.6
2016-May-17 11:33N 35°18' E 139°42'7 6.6
2016-May-17 10:33N 35°12' E 139°45'1211.6
2016-May-17 09:33N 35°23' E 139°42'3 2.7
2016-May-17 08:33N 35°26' E 139°42'0 0.0
2016-May-17 07:33N 35°26' E 139°42'0 0.0
2016-May-17 06:33N 35°26' E 139°42'0 0.4
2016-May-17 05:33N 35°25' E 139°42'6 5.4
2016-May-17 04:24N 35°19' E 139°40'0 0.0
2016-May-17 03:33N 35°19' E 139°40'0 0.0
2016-May-17 02:29N 35°19' E 139°40'1 1.0
2016-May-17 01:32N 35°19' E 139°39'2 0.8
2016-May-16 22:23N 35°17' E 139°41'0 0.0
2016-May-16 20:32N 35°17' E 139°41'  
Track history (hours):
 
Tides and Currents Weather Stations Pressure Air Temp Water Temp Dewpoint Dewpoint Depression Visibility Wind Speed Wind Dir Waves Ship Positions

Uraga Maru

Last reported at 2016-May-26 19:33 UTC. Time now 2016-May-26 20:20 UTC.
Position N 35°17' E 139°41'.

Length 40 m; draft 2.8 m.

Type: Tug. MMSI: 431101119.

Date/timePositionNaut miles runAvg speedWind from/ knotsBaromVisibWave heightAir tempDewpointWater temp
2016-May-26 19:33N 35°17' E 139°41'0 0.0
2016-May-26 18:31N 35°17' E 139°41'0 0.1
2016-May-26 17:33N 35°17' E 139°41'0 0.0
2016-May-26 16:26N 35°17' E 139°41'0 0.0
2016-May-26 15:33N 35°17' E 139°41'0 0.0
2016-May-26 14:31N 35°17' E 139°41'0 0.0
2016-May-26 13:24N 35°17' E 139°41'0 0.0
2016-May-26 12:33N 35°17' E 139°41'0 0.0
2016-May-26 11:32N 35°17' E 139°41'0 0.0
2016-May-26 10:24N 35°17' E 139°41'0 0.0
2016-May-26 09:07N 35°17' E 139°41'0 0.0
2016-May-26 08:30N 35°17' E 139°41'0 0.0
2016-May-26 07:31N 35°17' E 139°41'0 0.1
2016-May-26 06:33N 35°17' E 139°41'0 0.0
2016-May-26 05:33N 35°17' E 139°41'0 0.0
2016-May-26 04:33N 35°17' E 139°41'0 0.0
2016-May-26 03:33N 35°17' E 139°41'0 0.0
2016-May-26 02:33N 35°17' E 139°41'9 9.1
2016-May-26 01:34N 35°26' E 139°44'8 7.6
2016-May-26 00:33N 35°18' E 139°45'7 6.8
2016-May-25 23:30N 35°11' E 139°47'8 8.2
2016-May-25 22:33N 35°17' E 139°41'0 0.1
2016-May-25 21:32N 35°17' E 139°41'0 0.0
2016-May-25 20:31N 35°17' E 139°41'0 0.0
2016-May-25 19:31N 35°17' E 139°41'0 0.0
2016-May-25 18:32N 35°17' E 139°41'0 0.0
2016-May-25 17:33N 35°17' E 139°41'0 0.0
2016-May-25 16:31N 35°17' E 139°41'0 0.0
2016-May-25 15:33N 35°17' E 139°41'0 0.0
2016-May-25 14:33N 35°17' E 139°41'0 0.0
2016-May-25 13:33N 35°17' E 139°41'0 0.0
2016-May-25 12:33N 35°17' E 139°41'0 0.0
2016-May-25 10:14N 35°17' E 139°41'0 0.0
2016-May-25 09:27N 35°17' E 139°41'0 0.0
2016-May-25 08:11N 35°17' E 139°41'0 0.2
2016-May-25 07:25N 35°17' E 139°41'1 1.1
2016-May-25 06:23N 35°18' E 139°42'0 0.6
2016-May-25 05:33N 35°18' E 139°42'4 3.7
2016-May-25 04:28N 35°16' E 139°46'910.3
2016-May-25 03:33N 35°25' E 139°46'6 5.7
2016-May-25 02:33N 35°20' E 139°49'4 4.0
2016-May-25 01:33N 35°20' E 139°45'4 4.0
2016-May-25 00:31N 35°17' E 139°41'0 0.0
2016-May-24 23:20N 35°17' E 139°41'0 0.0
2016-May-24 22:32N 35°17' E 139°41'0 0.0
2016-May-24 21:22N 35°17' E 139°41'0 0.0
2016-May-24 20:17N 35°17' E 139°41'0 0.0
2016-May-24 19:30N 35°17' E 139°41'0 0.0
2016-May-24 17:29N 35°17' E 139°41'0 0.0
2016-May-24 16:24N 35°17' E 139°41'0 0.0
2016-May-24 15:33N 35°17' E 139°41'0 0.0
2016-May-24 14:33N 35°17' E 139°41'0 0.0
2016-May-24 13:29N 35°17' E 139°41'0 0.0
2016-May-24 11:33N 35°17' E 139°41'0 0.0
2016-May-24 10:13N 35°17' E 139°41'0 0.0
2016-May-24 09:33N 35°17' E 139°41'0 0.0
2016-May-24 08:33N 35°17' E 139°41'0 0.0
2016-May-24 07:33N 35°17' E 139°41'0 0.0
2016-May-24 06:33N 35°17' E 139°41'0 0.0
2016-May-24 05:33N 35°17' E 139°41'0 0.0
2016-May-24 04:33N 35°17' E 139°41'0 0.0
2016-May-24 03:33N 35°17' E 139°41'0 0.0
2016-May-24 02:33N 35°17' E 139°41'0 0.0
2016-May-24 01:33N 35°17' E 139°41'0 0.0
2016-May-24 00:33N 35°17' E 139°41'0 0.0
2016-May-23 23:33N 35°17' E 139°41'1 0.7
2016-May-23 22:33N 35°17' E 139°41'6 6.3
2016-May-23 21:33N 35°13' E 139°47'3 3.2
2016-May-23 20:33N 35°13' E 139°43'3 2.6
2016-May-23 19:33N 35°12' E 139°46'1110.6
2016-May-23 18:33N 35°22' E 139°42'2 1.6
2016-May-23 17:33N 35°23' E 139°40'0 0.0
2016-May-23 16:33N 35°23' E 139°40'0 0.0
2016-May-23 15:33N 35°23' E 139°40'0 0.0
2016-May-23 14:33N 35°23' E 139°40'0 0.0
2016-May-23 13:33N 35°23' E 139°40'2 1.8
2016-May-23 12:33N 35°21' E 139°41'8 8.2
2016-May-23 11:33N 35°14' E 139°46'1111.0
2016-May-23 10:33N 35°25' E 139°43'1 1.3
2016-May-23 09:33N 35°24' E 139°44'3 2.6
2016-May-23 08:33N 35°22' E 139°41'8 7.9
2016-May-23 07:33N 35°16' E 139°47'1 1.1
2016-May-23 06:26N 35°15' E 139°46'5 4.4
2016-May-23 05:20N 35°17' E 139°41'0 0.0
2016-May-23 04:16N 35°17' E 139°41'0 0.1
2016-May-23 03:33N 35°17' E 139°41'0 0.0
2016-May-23 02:29N 35°17' E 139°41'0 0.1
2016-May-23 01:32N 35°17' E 139°41'0 0.1
2016-May-23 00:33N 35°17' E 139°41'0 0.0
2016-May-22 23:33N 35°17' E 139°41'0 0.0
2016-May-22 22:34N 35°17' E 139°41'0 0.0
2016-May-22 21:34N 35°17' E 139°41'0 0.0
2016-May-22 20:34N 35°17' E 139°41'0 0.0
2016-May-22 19:33N 35°17' E 139°41'0 0.0
2016-May-22 18:33N 35°17' E 139°41'0 0.0
2016-May-22 17:34N 35°17' E 139°41'0 0.0
2016-May-22 16:33N 35°17' E 139°41'0 0.0
2016-May-22 15:33N 35°17' E 139°41'0 0.0
2016-May-22 14:33N 35°17' E 139°41'0 0.0
2016-May-22 13:34N 35°17' E 139°41'0 0.0
2016-May-22 12:33N 35°17' E 139°41'0 0.0
2016-May-22 11:33N 35°17' E 139°41'0 0.0
2016-May-22 10:33N 35°17' E 139°41'0 0.0
2016-May-22 09:33N 35°17' E 139°41'0 0.0
2016-May-22 08:32N 35°17' E 139°41'0 0.0
2016-May-22 07:32N 35°17' E 139°41'0 0.0
2016-May-22 06:32N 35°17' E 139°41'0 0.0
2016-May-22 05:34N 35°17' E 139°41'0 0.0
2016-May-22 04:33N 35°17' E 139°41'0 0.0
2016-May-22 03:32N 35°17' E 139°41'0 0.0
2016-May-22 02:33N 35°17' E 139°41'0 0.0
2016-May-22 01:33N 35°17' E 139°41'7 6.8
2016-May-22 00:34N 35°22' E 139°46'4 3.5
2016-May-21 23:33N 35°20' E 139°49'1 1.2
2016-May-21 22:33N 35°22' E 139°49'2 2.1
2016-May-21 21:34N 35°24' E 139°48'8 8.2
2016-May-21 20:33N 35°15' E 139°47'3 3.2
2016-May-21 19:33N 35°13' E 139°44'1 1.0
2016-May-21 18:34N 35°13' E 139°43'0 0.0
2016-May-21 17:34N 35°13' E 139°43'3 2.9
2016-May-21 16:32N 35°14' E 139°46'1010.3
2016-May-21 15:33N 35°23' E 139°41'6 5.9
2016-May-21 14:33N 35°17' E 139°41'1 0.7
2016-May-21 13:33N 35°17' E 139°41'0 0.0
2016-May-21 12:25N 35°17' E 139°41'0 0.0
2016-May-21 11:27N 35°17' E 139°41'0 0.0
2016-May-21 10:33N 35°17' E 139°41'0 0.0
2016-May-21 07:33N 35°17' E 139°41'0 0.0
2016-May-21 06:32N 35°17' E 139°41'0 0.0
2016-May-21 05:25N 35°17' E 139°41'5 2.6
2016-May-21 03:33N 35°15' E 139°46'7 6.8
2016-May-21 02:33N 35°21' E 139°42'4 3.9
2016-May-21 01:33N 35°24' E 139°39'6 5.5
2016-May-21 00:33N 35°19' E 139°42'2 2.1
2016-May-20 23:33N 35°17' E 139°41'0 0.0
2016-May-20 22:33N 35°17' E 139°41'0 0.0
2016-May-20 21:32N 35°17' E 139°41'0 0.0
2016-May-20 20:32N 35°17' E 139°41'0 0.0
2016-May-20 19:33N 35°17' E 139°41'0 0.0
2016-May-20 18:33N 35°17' E 139°41'0 0.0
2016-May-20 17:33N 35°17' E 139°41'0 0.0
2016-May-20 16:33N 35°17' E 139°41'0 0.0
2016-May-20 15:33N 35°17' E 139°41'0 0.0
2016-May-20 14:33N 35°17' E 139°41'0 0.0
2016-May-20 13:33N 35°17' E 139°41'0 0.0
2016-May-20 12:33N 35°17' E 139°41'0 0.0
2016-May-20 11:33N 35°17' E 139°41'0 0.0
2016-May-20 10:33N 35°17' E 139°41'0 0.0
2016-May-20 09:33N 35°17' E 139°41'0 0.0
2016-May-20 08:33N 35°17' E 139°41'0 0.0
2016-May-20 07:33N 35°17' E 139°41'0 0.0
2016-May-20 06:33N 35°17' E 139°41'0 0.0
2016-May-20 05:33N 35°17' E 139°41'0 0.0
2016-May-20 04:33N 35°17' E 139°41'0 0.0
2016-May-20 03:33N 35°17' E 139°41'3 3.4
2016-May-20 02:33N 35°16' E 139°45'3 2.8
2016-May-20 01:33N 35°19' E 139°43'1110.8
2016-May-20 00:34N 35°28' E 139°49'7 6.7
2016-May-19 23:33N 35°29' E 139°58'3 3.0
2016-May-19 22:34N 35°28' E 139°54'7 7.3
2016-May-19 21:34N 35°24' E 139°46'1111.4
2016-May-19 20:33N 35°13' E 139°47'4 3.4
2016-May-19 19:32N 35°16' E 139°45'4 3.9
2016-May-19 18:34N 35°17' E 139°41'0 0.0
2016-May-19 17:33N 35°17' E 139°41'0 0.0
2016-May-19 16:34N 35°17' E 139°41'0 0.0
2016-May-19 15:34N 35°17' E 139°41'0 0.0
2016-May-19 14:33N 35°17' E 139°41'0 0.0
2016-May-19 13:33N 35°17' E 139°41'0 0.0
2016-May-19 12:34N 35°17' E 139°41'0 0.0
2016-May-19 11:34N 35°17' E 139°41'0 0.0
2016-May-19 10:34N 35°17' E 139°41'0 0.0
2016-May-19 09:33N 35°17' E 139°41'0 0.0
2016-May-19 08:33N 35°17' E 139°41'0 0.0
2016-May-19 07:33N 35°17' E 139°41'0 0.2
2016-May-19 06:34N 35°17' E 139°41'0 0.2
2016-May-19 05:32N 35°17' E 139°41'1 1.5
2016-May-19 04:34N 35°18' E 139°42'2 2.4
2016-May-19 03:33N 35°17' E 139°45'8 7.8
2016-May-19 02:33N 35°24' E 139°48'3 3.3
2016-May-19 01:34N 35°21' E 139°49'7 6.8
2016-May-19 00:33N 35°18' E 139°42'1 1.1
2016-May-18 23:33N 35°17' E 139°41'0 0.0
2016-May-18 21:33N 35°17' E 139°41'0 0.0
2016-May-18 20:18N 35°17' E 139°41'0 0.0
2016-May-18 19:33N 35°17' E 139°41'0 0.0
2016-May-18 18:33N 35°17' E 139°41'0 0.0
2016-May-18 17:26N 35°17' E 139°41'0 0.0
2016-May-18 15:25N 35°17' E 139°41'0 0.0
2016-May-18 14:33N 35°17' E 139°41'0 0.0
2016-May-18 13:23N 35°17' E 139°41'0 0.0
2016-May-18 12:29N 35°17' E 139°41'0 0.0
2016-May-18 11:30N 35°17' E 139°41'0 0.0
2016-May-18 10:33N 35°17' E 139°41'0 0.0
2016-May-18 09:33N 35°17' E 139°41'0 0.0
2016-May-18 08:34N 35°17' E 139°41'0 0.0
2016-May-18 06:27N 35°17' E 139°41'0 0.0
2016-May-17 23:32N 35°17' E 139°41'5 4.6
2016-May-17 22:33N 35°13' E 139°43'8 7.9
2016-May-17 21:33N 35°21' E 139°42'2 2.3
2016-May-17 20:34N 35°23' E 139°44'6 0.6
2016-May-17 11:33N 35°18' E 139°42'7 6.6
2016-May-17 10:33N 35°12' E 139°45'1211.6
2016-May-17 09:33N 35°23' E 139°42'3 2.7
2016-May-17 08:33N 35°26' E 139°42'0 0.0
2016-May-17 07:33N 35°26' E 139°42'0 0.0
2016-May-17 06:33N 35°26' E 139°42'0 0.4
2016-May-17 05:33N 35°25' E 139°42'6 5.4
2016-May-17 04:24N 35°19' E 139°40'0 0.0
2016-May-17 03:33N 35°19' E 139°40'0 0.0
2016-May-17 02:29N 35°19' E 139°40'1 1.0
2016-May-17 01:32N 35°19' E 139°39'2 0.8
2016-May-16 22:23N 35°17' E 139°41'0 0.0
2016-May-16 20:32N 35°17' E 139°41'  

Dump ship's entire track history